sensor_id;sensor_type;location;lat;lon;timestamp;P1;durP1;ratioP1;P2;durP2;ratioP2
80576;SDS011;69937;52.420;10.538;2023-11-21T00:03:21;12.80;;;8.80;;
80576;SDS011;69937;52.420;10.538;2023-11-21T00:08:23;14.38;;;8.35;;
80576;SDS011;69937;52.420;10.538;2023-11-21T00:13:24;16.15;;;6.47;;
80576;SDS011;69937;52.420;10.538;2023-11-21T00:18:24;13.65;;;9.15;;
80576;SDS011;69937;52.420;10.538;2023-11-21T00:23:25;19.92;;;8.93;;
80576;SDS011;69937;52.420;10.538;2023-11-21T00:28:26;16.45;;;9.15;;
80576;SDS011;69937;52.420;10.538;2023-11-21T00:33:26;11.75;;;9.02;;
80576;SDS011;69937;52.420;10.538;2023-11-21T00:38:27;14.88;;;8.60;;
80576;SDS011;69937;52.420;10.538;2023-11-21T00:43:28;15.45;;;8.80;;
80576;SDS011;69937;52.420;10.538;2023-11-21T00:48:28;11.63;;;6.22;;
80576;SDS011;69937;52.420;10.538;2023-11-21T00:53:29;15.45;;;9.35;;
80576;SDS011;69937;52.420;10.538;2023-11-21T00:58:30;9.70;;;8.38;;
80576;SDS011;69937;52.420;10.538;2023-11-21T01:03:30;13.65;;;8.55;;
80576;SDS011;69937;52.420;10.538;2023-11-21T01:08:31;19.50;;;9.32;;
80576;SDS011;69937;52.420;10.538;2023-11-21T01:13:31;10.98;;;9.05;;
80576;SDS011;69937;52.420;10.538;2023-11-21T01:18:32;12.50;;;9.02;;
80576;SDS011;69937;52.420;10.538;2023-11-21T01:23:32;12.25;;;9.10;;
80576;SDS011;69937;52.420;10.538;2023-11-21T01:28:33;16.27;;;9.15;;
80576;SDS011;69937;52.420;10.538;2023-11-21T01:33:33;12.85;;;8.95;;
80576;SDS011;69937;52.420;10.538;2023-11-21T01:38:34;13.25;;;9.48;;
80576;SDS011;69937;52.420;10.538;2023-11-21T01:43:34;14.10;;;9.20;;
80576;SDS011;69937;52.420;10.538;2023-11-21T01:48:35;15.60;;;9.20;;
80576;SDS011;69937;52.420;10.538;2023-11-21T01:53:36;13.30;;;9.30;;
80576;SDS011;69937;52.420;10.538;2023-11-21T01:58:37;11.82;;;8.52;;
80576;SDS011;69937;52.420;10.538;2023-11-21T02:03:37;16.02;;;10.05;;
80576;SDS011;69937;52.420;10.538;2023-11-21T02:08:38;16.70;;;8.63;;
80576;SDS011;69937;52.420;10.538;2023-11-21T02:13:39;13.32;;;10.50;;
80576;SDS011;69937;52.420;10.538;2023-11-21T02:18:47;19.40;;;9.77;;
80576;SDS011;69937;52.420;10.538;2023-11-21T02:23:48;18.33;;;10.60;;
80576;SDS011;69937;52.420;10.538;2023-11-21T02:28:49;14.60;;;10.30;;
80576;SDS011;69937;52.420;10.538;2023-11-21T02:33:49;21.33;;;10.65;;
80576;SDS011;69937;52.420;10.538;2023-11-21T02:38:50;11.88;;;10.45;;
80576;SDS011;69937;52.420;10.538;2023-11-21T02:43:50;18.02;;;10.43;;
80576;SDS011;69937;52.420;10.538;2023-11-21T02:48:51;18.98;;;11.18;;
80576;SDS011;69937;52.420;10.538;2023-11-21T02:53:53;19.80;;;11.98;;
80576;SDS011;69937;52.420;10.538;2023-11-21T02:58:59;21.02;;;10.75;;
80576;SDS011;69937;52.420;10.538;2023-11-21T03:04:00;18.50;;;10.68;;
80576;SDS011;69937;52.420;10.538;2023-11-21T03:09:01;20.58;;;12.05;;
80576;SDS011;69937;52.420;10.538;2023-11-21T03:14:02;18.58;;;11.43;;
80576;SDS011;69937;52.420;10.538;2023-11-21T03:19:02;14.10;;;10.10;;
80576;SDS011;69937;52.420;10.538;2023-11-21T03:24:03;19.60;;;11.35;;
80576;SDS011;69937;52.420;10.538;2023-11-21T03:29:04;15.65;;;8.43;;
80576;SDS011;69937;52.420;10.538;2023-11-21T03:34:04;24.67;;;11.77;;
80576;SDS011;69937;52.420;10.538;2023-11-21T03:39:06;23.33;;;11.30;;
80576;SDS011;69937;52.420;10.538;2023-11-21T03:44:06;20.48;;;11.30;;
80576;SDS011;69937;52.420;10.538;2023-11-21T03:49:07;18.42;;;11.32;;
80576;SDS011;69937;52.420;10.538;2023-11-21T03:54:07;20.45;;;11.55;;
80576;SDS011;69937;52.420;10.538;2023-11-21T03:59:08;18.23;;;11.52;;
80576;SDS011;69937;52.420;10.538;2023-11-21T04:04:09;20.50;;;10.77;;
80576;SDS011;69937;52.420;10.538;2023-11-21T04:09:09;20.77;;;12.23;;
80576;SDS011;69937;52.420;10.538;2023-11-21T04:14:10;22.50;;;12.38;;
80576;SDS011;69937;52.420;10.538;2023-11-21T04:19:10;20.80;;;11.73;;
80576;SDS011;69937;52.420;10.538;2023-11-21T04:24:11;20.88;;;11.52;;
80576;SDS011;69937;52.420;10.538;2023-11-21T04:29:12;19.20;;;12.73;;
80576;SDS011;69937;52.420;10.538;2023-11-21T04:34:12;19.48;;;11.60;;
80576;SDS011;69937;52.420;10.538;2023-11-21T04:39:13;17.00;;;12.00;;
80576;SDS011;69937;52.420;10.538;2023-11-21T04:44:13;18.40;;;10.00;;
80576;SDS011;69937;52.420;10.538;2023-11-21T04:49:16;17.98;;;12.05;;
80576;SDS011;69937;52.420;10.538;2023-11-21T04:54:17;18.88;;;12.25;;
80576;SDS011;69937;52.420;10.538;2023-11-21T04:59:17;21.67;;;11.95;;
80576;SDS011;69937;52.420;10.538;2023-11-21T05:04:18;18.35;;;11.75;;
80576;SDS011;69937;52.420;10.538;2023-11-21T05:09:19;16.17;;;11.27;;
80576;SDS011;69937;52.420;10.538;2023-11-21T05:14:19;10.52;;;7.95;;
80576;SDS011;69937;52.420;10.538;2023-11-21T05:19:20;7.18;;;6.45;;
80576;SDS011;69937;52.420;10.538;2023-11-21T05:24:20;4.80;;;3.42;;
80576;SDS011;69937;52.420;10.538;2023-11-21T05:29:21;10.05;;;5.88;;
80576;SDS011;69937;52.420;10.538;2023-11-21T05:34:22;6.60;;;6.05;;
80576;SDS011;69937;52.420;10.538;2023-11-21T05:39:24;7.63;;;6.85;;
80576;SDS011;69937;52.420;10.538;2023-11-21T05:44:24;8.40;;;6.53;;
80576;SDS011;69937;52.420;10.538;2023-11-21T05:49:25;8.85;;;8.05;;
80576;SDS011;69937;52.420;10.538;2023-11-21T05:54:26;9.15;;;8.25;;
80576;SDS011;69937;52.420;10.538;2023-11-21T05:59:27;8.73;;;7.85;;
80576;SDS011;69937;52.420;10.538;2023-11-21T06:04:27;9.73;;;6.82;;
80576;SDS011;69937;52.420;10.538;2023-11-21T06:09:28;7.85;;;6.20;;
80576;SDS011;69937;52.420;10.538;2023-11-21T06:14:28;9.20;;;8.30;;
80576;SDS011;69937;52.420;10.538;2023-11-21T06:19:29;10.27;;;9.18;;
80576;SDS011;69937;52.420;10.538;2023-11-21T06:24:29;10.27;;;8.90;;
80576;SDS011;69937;52.420;10.538;2023-11-21T06:29:30;11.50;;;10.43;;
80576;SDS011;69937;52.420;10.538;2023-11-21T06:34:31;12.57;;;10.02;;
80576;SDS011;69937;52.420;10.538;2023-11-21T06:39:33;12.63;;;10.25;;
80576;SDS011;69937;52.420;10.538;2023-11-21T06:44:33;12.02;;;10.20;;
80576;SDS011;69937;52.420;10.538;2023-11-21T06:49:35;13.07;;;11.02;;
80576;SDS011;69937;52.420;10.538;2023-11-21T06:54:36;12.07;;;9.70;;
80576;SDS011;69937;52.420;10.538;2023-11-21T06:59:37;15.70;;;10.25;;
80576;SDS011;69937;52.420;10.538;2023-11-21T07:04:37;11.57;;;9.25;;
80576;SDS011;69937;52.420;10.538;2023-11-21T07:09:38;16.50;;;11.13;;
80576;SDS011;69937;52.420;10.538;2023-11-21T07:14:39;10.75;;;9.63;;
80576;SDS011;69937;52.420;10.538;2023-11-21T07:19:43;12.30;;;10.75;;
80576;SDS011;69937;52.420;10.538;2023-11-21T07:24:43;15.35;;;11.68;;
80576;SDS011;69937;52.420;10.538;2023-11-21T07:29:44;13.77;;;11.82;;
80576;SDS011;69937;52.420;10.538;2023-11-21T07:34:45;20.23;;;11.40;;
80576;SDS011;69937;52.420;10.538;2023-11-21T07:39:45;11.32;;;10.13;;
80576;SDS011;69937;52.420;10.538;2023-11-21T07:44:46;11.77;;;10.57;;
80576;SDS011;69937;52.420;10.538;2023-11-21T07:49:47;13.07;;;10.63;;
80576;SDS011;69937;52.420;10.538;2023-11-21T07:54:48;13.43;;;10.60;;
80576;SDS011;69937;52.420;10.538;2023-11-21T07:59:48;11.65;;;10.45;;
80576;SDS011;69937;52.420;10.538;2023-11-21T08:04:50;10.40;;;9.23;;
80576;SDS011;69937;52.420;10.538;2023-11-21T08:09:51;11.02;;;9.93;;
80576;SDS011;69937;52.420;10.538;2023-11-21T08:14:52;11.07;;;9.65;;
80576;SDS011;69937;52.420;10.538;2023-11-21T08:19:53;12.20;;;9.68;;
80576;SDS011;69937;52.420;10.538;2023-11-21T08:24:53;10.35;;;9.35;;
80576;SDS011;69937;52.420;10.538;2023-11-21T08:29:55;11.60;;;10.50;;
80576;SDS011;69937;52.420;10.538;2023-11-21T08:34:57;9.23;;;6.30;;
80576;SDS011;69937;52.420;10.538;2023-11-21T08:39:58;11.15;;;10.02;;
80576;SDS011;69937;52.420;10.538;2023-11-21T08:45:02;9.05;;;8.00;;
80576;SDS011;69937;52.420;10.538;2023-11-21T08:50:02;10.32;;;9.38;;
80576;SDS011;69937;52.420;10.538;2023-11-21T08:55:06;9.95;;;9.02;;
80576;SDS011;69937;52.420;10.538;2023-11-21T09:00:08;9.05;;;7.90;;
80576;SDS011;69937;52.420;10.538;2023-11-21T09:05:12;9.27;;;8.38;;
80576;SDS011;69937;52.420;10.538;2023-11-21T09:10:14;10.20;;;8.70;;
80576;SDS011;69937;52.420;10.538;2023-11-21T09:15:14;9.60;;;8.00;;
80576;SDS011;69937;52.420;10.538;2023-11-21T09:20:15;9.73;;;8.75;;
80576;SDS011;69937;52.420;10.538;2023-11-21T09:25:16;8.77;;;7.97;;
80576;SDS011;69937;52.420;10.538;2023-11-21T09:30:16;8.60;;;7.80;;
80576;SDS011;69937;52.420;10.538;2023-11-21T09:35:17;9.73;;;8.73;;
80576;SDS011;69937;52.420;10.538;2023-11-21T09:40:20;8.40;;;7.50;;
80576;SDS011;69937;52.420;10.538;2023-11-21T09:45:25;10.18;;;7.70;;
80576;SDS011;69937;52.420;10.538;2023-11-21T09:50:31;8.43;;;7.60;;
80576;SDS011;69937;52.420;10.538;2023-11-21T09:55:34;8.65;;;7.72;;
80576;SDS011;69937;52.420;10.538;2023-11-21T10:00:42;10.63;;;8.27;;
80576;SDS011;69937;52.420;10.538;2023-11-21T10:05:45;9.63;;;8.48;;
80576;SDS011;69937;52.420;10.538;2023-11-21T10:10:49;6.72;;;5.60;;
80576;SDS011;69937;52.420;10.538;2023-11-21T10:15:53;7.78;;;7.10;;
80576;SDS011;69937;52.420;10.538;2023-11-21T10:20:54;10.05;;;9.10;;
80576;SDS011;69937;52.420;10.538;2023-11-21T10:25:55;10.30;;;8.05;;
80576;SDS011;69937;52.420;10.538;2023-11-21T10:30:56;13.07;;;8.55;;
80576;SDS011;69937;52.420;10.538;2023-11-21T10:35:57;9.48;;;5.22;;
80576;SDS011;69937;52.420;10.538;2023-11-21T10:40:58;9.73;;;8.82;;
80576;SDS011;69937;52.420;10.538;2023-11-21T10:45:59;8.57;;;7.75;;
80576;SDS011;69937;52.420;10.538;2023-11-21T10:51:01;12.40;;;8.45;;
80576;SDS011;69937;52.420;10.538;2023-11-21T10:56:08;7.07;;;5.00;;
80576;SDS011;69937;52.420;10.538;2023-11-21T11:01:17;8.73;;;7.85;;
80576;SDS011;69937;52.420;10.538;2023-11-21T11:06:21;8.50;;;7.40;;
80576;SDS011;69937;52.420;10.538;2023-11-21T11:11:22;7.28;;;6.57;;
80576;SDS011;69937;52.420;10.538;2023-11-21T11:16:24;7.63;;;6.82;;
80576;SDS011;69937;52.420;10.538;2023-11-21T11:21:37;7.93;;;6.63;;
80576;SDS011;69937;52.420;10.538;2023-11-21T11:27:11;7.30;;;6.53;;
80576;SDS011;69937;52.420;10.538;2023-11-21T11:32:36;7.75;;;7.03;;
80576;SDS011;69937;52.420;10.538;2023-11-21T11:37:43;6.63;;;6.03;;
80576;SDS011;69937;52.420;10.538;2023-11-21T11:43:00;7.63;;;6.82;;
80576;SDS011;69937;52.420;10.538;2023-11-21T11:48:04;6.70;;;6.05;;
80576;SDS011;69937;52.420;10.538;2023-11-21T11:53:12;6.28;;;5.78;;
80576;SDS011;69937;52.420;10.538;2023-11-21T11:58:14;6.10;;;5.50;;
80576;SDS011;69937;52.420;10.538;2023-11-21T12:03:15;5.35;;;4.93;;
80576;SDS011;69937;52.420;10.538;2023-11-21T12:08:17;6.10;;;5.50;;
80576;SDS011;69937;52.420;10.538;2023-11-21T12:13:17;6.43;;;5.03;;
80576;SDS011;69937;52.420;10.538;2023-11-21T12:18:18;5.53;;;5.03;;
80576;SDS011;69937;52.420;10.538;2023-11-21T12:23:19;5.70;;;5.13;;
80576;SDS011;69937;52.420;10.538;2023-11-21T12:28:20;6.05;;;5.47;;
80576;SDS011;69937;52.420;10.538;2023-11-21T12:33:22;6.25;;;5.75;;
80576;SDS011;69937;52.420;10.538;2023-11-21T12:38:25;6.20;;;5.68;;
80576;SDS011;69937;52.420;10.538;2023-11-21T12:43:35;7.75;;;5.93;;
80576;SDS011;69937;52.420;10.538;2023-11-21T12:48:39;6.18;;;5.60;;
80576;SDS011;69937;52.420;10.538;2023-11-21T12:53:44;6.72;;;6.18;;
80576;SDS011;69937;52.420;10.538;2023-11-21T12:58:45;6.10;;;5.55;;
80576;SDS011;69937;52.420;10.538;2023-11-21T13:03:50;6.53;;;5.97;;
80576;SDS011;69937;52.420;10.538;2023-11-21T13:08:51;6.90;;;6.22;;
80576;SDS011;69937;52.420;10.538;2023-11-21T13:13:51;5.40;;;3.85;;
80576;SDS011;69937;52.420;10.538;2023-11-21T13:18:56;6.28;;;5.78;;
80576;SDS011;69937;52.420;10.538;2023-11-21T13:23:57;7.00;;;6.30;;
80576;SDS011;69937;52.420;10.538;2023-11-21T13:28:58;6.20;;;5.60;;
80576;SDS011;69937;52.420;10.538;2023-11-21T13:33:59;6.20;;;5.60;;
80576;SDS011;69937;52.420;10.538;2023-11-21T13:39:05;6.03;;;5.53;;
80576;SDS011;69937;52.420;10.538;2023-11-21T13:44:07;5.55;;;5.05;;
80576;SDS011;69937;52.420;10.538;2023-11-21T13:49:26;6.10;;;5.60;;
80576;SDS011;69937;52.420;10.538;2023-11-21T13:59:49;6.70;;;6.20;;
80576;SDS011;69937;52.420;10.538;2023-11-21T14:05:10;6.40;;;5.93;;
80576;SDS011;69937;52.420;10.538;2023-11-21T14:10:13;6.50;;;6.00;;
80576;SDS011;69937;52.420;10.538;2023-11-21T14:15:15;7.00;;;6.30;;
80576;SDS011;69937;52.420;10.538;2023-11-21T14:20:18;6.88;;;6.38;;
80576;SDS011;69937;52.420;10.538;2023-11-21T14:25:20;7.05;;;6.47;;
80576;SDS011;69937;52.420;10.538;2023-11-21T14:30:22;7.47;;;6.78;;
80576;SDS011;69937;52.420;10.538;2023-11-21T14:35:23;6.20;;;5.70;;
80576;SDS011;69937;52.420;10.538;2023-11-21T14:40:23;7.45;;;6.85;;
80576;SDS011;69937;52.420;10.538;2023-11-21T14:45:24;7.47;;;6.88;;
80576;SDS011;69937;52.420;10.538;2023-11-21T14:50:26;7.45;;;6.85;;
80576;SDS011;69937;52.420;10.538;2023-11-21T14:55:49;8.13;;;7.53;;
80576;SDS011;69937;52.420;10.538;2023-11-21T15:00:49;7.22;;;6.72;;
80576;SDS011;69937;52.420;10.538;2023-11-21T15:05:52;10.75;;;6.05;;
80576;SDS011;69937;52.420;10.538;2023-11-21T15:10:53;7.68;;;6.97;;
80576;SDS011;69937;52.420;10.538;2023-11-21T15:15:54;8.38;;;7.53;;
80576;SDS011;69937;52.420;10.538;2023-11-21T15:20:55;7.90;;;7.28;;
80576;SDS011;69937;52.420;10.538;2023-11-21T15:26:11;5.47;;;4.78;;
80576;SDS011;69937;52.420;10.538;2023-11-21T15:31:12;7.97;;;7.32;;
80576;SDS011;69937;52.420;10.538;2023-11-21T15:36:16;9.95;;;9.00;;
80576;SDS011;69937;52.420;10.538;2023-11-21T15:41:16;5.82;;;4.70;;
80576;SDS011;69937;52.420;10.538;2023-11-21T15:46:17;9.00;;;8.30;;
80576;SDS011;69937;52.420;10.538;2023-11-21T15:51:17;9.13;;;8.38;;
80576;SDS011;69937;52.420;10.538;2023-11-21T15:56:18;9.80;;;8.73;;
80576;SDS011;69937;52.420;10.538;2023-11-21T16:01:19;8.25;;;7.45;;
80576;SDS011;69937;52.420;10.538;2023-11-21T16:06:21;9.82;;;9.02;;
80576;SDS011;69937;52.420;10.538;2023-11-21T16:11:22;9.23;;;8.30;;
80576;SDS011;69937;52.420;10.538;2023-11-21T16:16:23;10.77;;;8.68;;
80576;SDS011;69937;52.420;10.538;2023-11-21T16:21:24;10.10;;;9.02;;
80576;SDS011;69937;52.420;10.538;2023-11-21T16:26:24;10.23;;;9.30;;
80576;SDS011;69937;52.420;10.538;2023-11-21T16:31:25;10.40;;;9.50;;
80576;SDS011;69937;52.420;10.538;2023-11-21T16:36:25;8.95;;;8.30;;
80576;SDS011;69937;52.420;10.538;2023-11-21T16:41:26;9.07;;;8.38;;
80576;SDS011;69937;52.420;10.538;2023-11-21T16:46:26;8.95;;;8.05;;
80576;SDS011;69937;52.420;10.538;2023-11-21T16:51:27;8.15;;;7.35;;
80576;SDS011;69937;52.420;10.538;2023-11-21T16:56:27;9.15;;;8.43;;
80576;SDS011;69937;52.420;10.538;2023-11-21T17:01:28;10.40;;;9.43;;
80576;SDS011;69937;52.420;10.538;2023-11-21T17:06:29;10.57;;;9.57;;
80576;SDS011;69937;52.420;10.538;2023-11-21T17:11:32;9.60;;;8.80;;
80576;SDS011;69937;52.420;10.538;2023-11-21T17:16:33;9.18;;;8.27;;
80576;SDS011;69937;52.420;10.538;2023-11-21T17:21:33;10.30;;;9.50;;
80576;SDS011;69937;52.420;10.538;2023-11-21T17:26:34;9.38;;;8.57;;
80576;SDS011;69937;52.420;10.538;2023-11-21T17:31:35;8.13;;;7.53;;
80576;SDS011;69937;52.420;10.538;2023-11-21T17:36:36;11.05;;;10.25;;
80576;SDS011;69937;52.420;10.538;2023-11-21T17:41:38;8.27;;;7.60;;
80576;SDS011;69937;52.420;10.538;2023-11-21T17:46:38;11.55;;;9.45;;
80576;SDS011;69937;52.420;10.538;2023-11-21T17:51:39;9.57;;;8.60;;
80576;SDS011;69937;52.420;10.538;2023-11-21T17:56:40;10.90;;;9.90;;
80576;SDS011;69937;52.420;10.538;2023-11-21T18:01:41;9.60;;;8.90;;
80576;SDS011;69937;52.420;10.538;2023-11-21T18:06:42;5.72;;;5.22;;
80576;SDS011;69937;52.420;10.538;2023-11-21T18:11:44;10.65;;;9.65;;
80576;SDS011;69937;52.420;10.538;2023-11-21T18:16:45;9.75;;;8.98;;
80576;SDS011;69937;52.420;10.538;2023-11-21T18:21:45;9.65;;;8.77;;
80576;SDS011;69937;52.420;10.538;2023-11-21T18:26:46;7.63;;;6.05;;
80576;SDS011;69937;52.420;10.538;2023-11-21T18:31:46;10.57;;;9.60;;
80576;SDS011;69937;52.420;10.538;2023-11-21T18:36:47;9.57;;;8.77;;
80576;SDS011;69937;52.420;10.538;2023-11-21T18:41:48;11.18;;;10.27;;
80576;SDS011;69937;52.420;10.538;2023-11-21T18:46:48;10.95;;;10.05;;
80576;SDS011;69937;52.420;10.538;2023-11-21T18:51:49;11.70;;;10.48;;
80576;SDS011;69937;52.420;10.538;2023-11-21T18:56:51;7.47;;;6.28;;
80576;SDS011;69937;52.420;10.538;2023-11-21T19:01:52;10.75;;;9.95;;
80576;SDS011;69937;52.420;10.538;2023-11-21T19:06:53;9.68;;;8.88;;
80576;SDS011;69937;52.420;10.538;2023-11-21T19:11:54;6.57;;;5.75;;
80576;SDS011;69937;52.420;10.538;2023-11-21T19:16:54;10.07;;;9.38;;
80576;SDS011;69937;52.420;10.538;2023-11-21T19:21:56;9.65;;;8.95;;
80576;SDS011;69937;52.420;10.538;2023-11-21T19:26:56;9.55;;;8.85;;
80576;SDS011;69937;52.420;10.538;2023-11-21T19:31:57;10.30;;;9.50;;
80576;SDS011;69937;52.420;10.538;2023-11-21T19:36:57;9.55;;;8.75;;
80576;SDS011;69937;52.420;10.538;2023-11-21T19:41:58;10.95;;;10.13;;
80576;SDS011;69937;52.420;10.538;2023-11-21T19:46:58;10.10;;;9.40;;
80576;SDS011;69937;52.420;10.538;2023-11-21T19:51:59;11.82;;;10.07;;
80576;SDS011;69937;52.420;10.538;2023-11-21T19:56:59;9.80;;;9.20;;
80576;SDS011;69937;52.420;10.538;2023-11-21T20:02:04;11.05;;;10.00;;
80576;SDS011;69937;52.420;10.538;2023-11-21T20:07:05;12.35;;;10.90;;
80576;SDS011;69937;52.420;10.538;2023-11-21T20:12:06;10.55;;;9.85;;
80576;SDS011;69937;52.420;10.538;2023-11-21T20:17:06;10.93;;;9.88;;
80576;SDS011;69937;52.420;10.538;2023-11-21T20:22:07;9.07;;;8.48;;
80576;SDS011;69937;52.420;10.538;2023-11-21T20:27:08;9.77;;;9.18;;
80576;SDS011;69937;52.420;10.538;2023-11-21T20:32:08;10.45;;;9.50;;
80576;SDS011;69937;52.420;10.538;2023-11-21T20:37:10;10.20;;;9.18;;
80576;SDS011;69937;52.420;10.538;2023-11-21T20:42:11;7.22;;;6.53;;
80576;SDS011;69937;52.420;10.538;2023-11-21T20:47:11;10.18;;;9.48;;
80576;SDS011;69937;52.420;10.538;2023-11-21T20:52:12;11.05;;;10.07;;
80576;SDS011;69937;52.420;10.538;2023-11-21T20:57:12;9.43;;;8.68;;
80576;SDS011;69937;52.420;10.538;2023-11-21T21:02:13;9.63;;;8.93;;
80576;SDS011;69937;52.420;10.538;2023-11-21T21:07:14;10.93;;;9.98;;
80576;SDS011;69937;52.420;10.538;2023-11-21T21:12:15;11.75;;;10.73;;
80576;SDS011;69937;52.420;10.538;2023-11-21T21:17:15;11.43;;;10.43;;
80576;SDS011;69937;52.420;10.538;2023-11-21T21:22:16;7.43;;;6.82;;
80576;SDS011;69937;52.420;10.538;2023-11-21T21:27:16;11.82;;;10.93;;
80576;SDS011;69937;52.420;10.538;2023-11-21T21:32:17;10.90;;;10.20;;
80576;SDS011;69937;52.420;10.538;2023-11-21T21:37:18;11.32;;;10.52;;
80576;SDS011;69937;52.420;10.538;2023-11-21T21:42:19;11.02;;;10.32;;
80576;SDS011;69937;52.420;10.538;2023-11-21T21:47:21;11.15;;;10.20;;
80576;SDS011;69937;52.420;10.538;2023-11-21T21:52:32;11.38;;;10.45;;
80576;SDS011;69937;52.420;10.538;2023-11-21T21:57:34;10.43;;;9.52;;
80576;SDS011;69937;52.420;10.538;2023-11-21T22:02:35;10.70;;;9.98;;
80576;SDS011;69937;52.420;10.538;2023-11-21T22:07:35;10.07;;;9.48;;
80576;SDS011;69937;52.420;10.538;2023-11-21T22:12:36;12.30;;;11.40;;
80576;SDS011;69937;52.420;10.538;2023-11-21T22:17:37;11.57;;;10.75;;
80576;SDS011;69937;52.420;10.538;2023-11-21T22:22:37;10.68;;;9.95;;
80576;SDS011;69937;52.420;10.538;2023-11-21T22:27:39;10.70;;;9.90;;
80576;SDS011;69937;52.420;10.538;2023-11-21T22:32:41;10.82;;;9.88;;
80576;SDS011;69937;52.420;10.538;2023-11-21T22:37:41;11.02;;;10.27;;
80576;SDS011;69937;52.420;10.538;2023-11-21T22:42:43;11.82;;;10.95;;
80576;SDS011;69937;52.420;10.538;2023-11-21T22:47:43;7.35;;;6.55;;
80576;SDS011;69937;52.420;10.538;2023-11-21T22:52:44;11.60;;;10.70;;
80576;SDS011;69937;52.420;10.538;2023-11-21T22:57:46;12.25;;;11.35;;
80576;SDS011;69937;52.420;10.538;2023-11-21T23:02:46;11.50;;;10.80;;
80576;SDS011;69937;52.420;10.538;2023-11-21T23:07:47;12.18;;;11.38;;
80576;SDS011;69937;52.420;10.538;2023-11-21T23:12:48;12.32;;;11.63;;
80576;SDS011;69937;52.420;10.538;2023-11-21T23:17:49;11.15;;;10.20;;
80576;SDS011;69937;52.420;10.538;2023-11-21T23:22:49;12.00;;;11.10;;
80576;SDS011;69937;52.420;10.538;2023-11-21T23:27:50;12.23;;;11.13;;
80576;SDS011;69937;52.420;10.538;2023-11-21T23:32:51;11.25;;;10.45;;
80576;SDS011;69937;52.420;10.538;2023-11-21T23:37:51;9.45;;;8.82;;
80576;SDS011;69937;52.420;10.538;2023-11-21T23:42:52;12.02;;;11.00;;
80576;SDS011;69937;52.420;10.538;2023-11-21T23:47:53;11.32;;;10.63;;
80576;SDS011;69937;52.420;10.538;2023-11-21T23:52:55;12.73;;;11.93;;
80576;SDS011;69937;52.420;10.538;2023-11-21T23:57:55;11.60;;;10.85;;
